sensor_id;sensor_type;location;lat;lon;timestamp;pressure;altitude;pressure_sealevel;temperature;humidity
65718;BME280;52445;52.466;-1.016;2023-04-06T00:00:09;99920.03;;;9.79;76.42
65718;BME280;52445;52.466;-1.016;2023-04-06T00:02:36;99911.41;;;9.76;76.22
65718;BME280;52445;52.466;-1.016;2023-04-06T00:05:03;99913.13;;;9.77;76.45
65718;BME280;52445;52.466;-1.016;2023-04-06T00:07:30;99913.13;;;9.77;76.61
65718;BME280;52445;52.466;-1.016;2023-04-06T00:09:56;99914.00;;;9.78;76.60
65718;BME280;52445;52.466;-1.016;2023-04-06T00:12:23;99907.94;;;9.77;76.46
65718;BME280;52445;52.466;-1.016;2023-04-06T00:14:50;99905.34;;;9.79;76.46
65718;BME280;52445;52.466;-1.016;2023-04-06T00:17:16;99905.34;;;9.77;76.77
65718;BME280;52445;52.466;-1.016;2023-04-06T00:19:43;99907.94;;;9.77;76.79
65718;BME280;52445;52.466;-1.016;2023-04-06T00:22:10;99903.63;;;9.78;76.74
65718;BME280;52445;52.466;-1.016;2023-04-06T00:24:36;99897.59;;;9.79;76.53
65718;BME280;52445;52.466;-1.016;2023-04-06T00:27:03;99895.00;;;9.79;76.53
65718;BME280;52445;52.466;-1.016;2023-04-06T00:29:29;99885.53;;;9.80;76.57
65718;BME280;52445;52.466;-1.016;2023-04-06T00:31:56;99891.59;;;9.80;76.57
65718;BME280;52445;52.466;-1.016;2023-04-06T00:34:23;99888.13;;;9.80;76.80
65718;BME280;52445;52.466;-1.016;2023-04-06T00:36:49;99878.66;;;9.79;76.71
65718;BME280;52445;52.466;-1.016;2023-04-06T00:39:16;99880.38;;;9.80;76.51
65718;BME280;52445;52.466;-1.016;2023-04-06T00:41:49;99877.78;;;9.81;76.50
65718;BME280;52445;52.466;-1.016;2023-04-06T00:44:17;99874.31;;;9.82;76.81
65718;BME280;52445;52.466;-1.016;2023-04-06T00:46:44;99869.16;;;9.82;76.47
65718;BME280;52445;52.466;-1.016;2023-04-06T00:49:11;99870.00;;;9.83;76.50
65718;BME280;52445;52.466;-1.016;2023-04-06T00:51:37;99857.91;;;9.82;77.13
65718;BME280;52445;52.466;-1.016;2023-04-06T00:54:04;99861.38;;;9.84;76.49
65718;BME280;52445;52.466;-1.016;2023-04-06T00:56:31;99854.50;;;9.83;76.83
65718;BME280;52445;52.466;-1.016;2023-04-06T00:58:58;99852.75;;;9.82;76.65
65718;BME280;52445;52.466;-1.016;2023-04-06T01:01:25;99852.75;;;9.85;76.40
65718;BME280;52445;52.466;-1.016;2023-04-06T01:03:52;99851.91;;;9.81;77.02
65718;BME280;52445;52.466;-1.016;2023-04-06T01:06:19;99847.56;;;9.82;76.89
65718;BME280;52445;52.466;-1.016;2023-04-06T01:08:46;99851.91;;;9.84;76.31
65718;BME280;52445;52.466;-1.016;2023-04-06T01:11:12;99841.56;;;9.83;77.33
65718;BME280;52445;52.466;-1.016;2023-04-06T01:13:39;99843.28;;;9.85;76.96
65718;BME280;52445;52.466;-1.016;2023-04-06T01:16:06;99835.50;;;9.84;77.52
65718;BME280;52445;52.466;-1.016;2023-04-06T01:18:33;99835.50;;;9.84;77.17
65718;BME280;52445;52.466;-1.016;2023-04-06T01:21:00;99835.50;;;9.81;77.03
65718;BME280;52445;52.466;-1.016;2023-04-06T01:23:27;99825.16;;;9.82;77.01
65718;BME280;52445;52.466;-1.016;2023-04-06T01:25:54;99825.16;;;9.81;77.05
65718;BME280;52445;52.466;-1.016;2023-04-06T01:28:21;99820.88;;;9.81;77.44
65718;BME280;52445;52.466;-1.016;2023-04-06T01:30:47;99820.00;;;9.81;77.13
65718;BME280;52445;52.466;-1.016;2023-04-06T01:33:14;99818.28;;;9.80;77.09
65718;BME280;52445;52.466;-1.016;2023-04-06T01:35:40;99807.06;;;9.77;77.51
65718;BME280;52445;52.466;-1.016;2023-04-06T01:38:07;99813.97;;;9.80;77.23
65718;BME280;52445;52.466;-1.016;2023-04-06T01:40:34;99799.31;;;9.81;77.22
65718;BME280;52445;52.466;-1.016;2023-04-06T01:43:00;99801.03;;;9.82;77.20
65718;BME280;52445;52.466;-1.016;2023-04-06T01:45:27;99801.00;;;9.85;76.85
65718;BME280;52445;52.466;-1.016;2023-04-06T01:47:54;99801.00;;;9.85;77.73
65718;BME280;52445;52.466;-1.016;2023-04-06T01:50:20;99792.41;;;9.84;77.32
65718;BME280;52445;52.466;-1.016;2023-04-06T01:52:47;99794.13;;;9.87;76.93
65718;BME280;52445;52.466;-1.016;2023-04-06T01:55:14;99787.22;;;9.86;77.37
65718;BME280;52445;52.466;-1.016;2023-04-06T01:57:40;99793.25;;;9.85;77.51
65718;BME280;52445;52.466;-1.016;2023-04-06T02:00:09;99792.41;;;9.86;77.25
65718;BME280;52445;52.466;-1.016;2023-04-06T02:02:38;99783.78;;;9.84;78.14
65718;BME280;52445;52.466;-1.016;2023-04-06T02:05:05;99794.13;;;9.77;78.13
65718;BME280;52445;52.466;-1.016;2023-04-06T02:07:32;99775.16;;;9.82;77.72
65718;BME280;52445;52.466;-1.016;2023-04-06T02:09:58;99781.19;;;9.84;77.87
65718;BME280;52445;52.466;-1.016;2023-04-06T02:12:25;99780.31;;;9.85;77.15
65718;BME280;52445;52.466;-1.016;2023-04-06T02:14:52;99773.44;;;9.84;77.28
65718;BME280;52445;52.466;-1.016;2023-04-06T02:17:18;99777.72;;;9.82;77.86
65718;BME280;52445;52.466;-1.016;2023-04-06T02:19:45;99773.44;;;9.81;77.74
65718;BME280;52445;52.466;-1.016;2023-04-06T02:22:12;99768.25;;;9.82;77.34
65718;BME280;52445;52.466;-1.016;2023-04-06T02:24:38;99768.25;;;9.81;77.78
65718;BME280;52445;52.466;-1.016;2023-04-06T02:27:05;99766.53;;;9.83;77.44
65718;BME280;52445;52.466;-1.016;2023-04-06T02:29:32;99761.38;;;9.83;77.78
65718;BME280;52445;52.466;-1.016;2023-04-06T02:31:58;99755.31;;;9.84;77.68
65718;BME280;52445;52.466;-1.016;2023-04-06T02:34:26;99754.44;;;9.85;77.62
65718;BME280;52445;52.466;-1.016;2023-04-06T02:36:52;99752.75;;;9.84;77.59
65718;BME280;52445;52.466;-1.016;2023-04-06T02:39:19;99752.72;;;9.87;78.00
65718;BME280;52445;52.466;-1.016;2023-04-06T02:41:45;99742.38;;;9.87;77.64
65718;BME280;52445;52.466;-1.016;2023-04-06T02:44:12;99738.91;;;9.88;77.53
65718;BME280;52445;52.466;-1.016;2023-04-06T02:46:39;99741.50;;;9.86;77.81
65718;BME280;52445;52.466;-1.016;2023-04-06T02:49:05;99738.03;;;9.89;77.53
65718;BME280;52445;52.466;-1.016;2023-04-06T02:51:32;99739.78;;;9.90;77.63
65718;BME280;52445;52.466;-1.016;2023-04-06T02:53:59;99742.38;;;9.90;77.43
65718;BME280;52445;52.466;-1.016;2023-04-06T02:56:26;99742.38;;;9.90;78.00
65718;BME280;52445;52.466;-1.016;2023-04-06T02:58:53;99727.69;;;9.90;77.78
65718;BME280;52445;52.466;-1.016;2023-04-06T03:01:19;99728.56;;;9.91;77.75
65718;BME280;52445;52.466;-1.016;2023-04-06T03:03:46;99728.56;;;9.91;77.86
65718;BME280;52445;52.466;-1.016;2023-04-06T03:06:13;99719.09;;;9.90;77.87
65718;BME280;52445;52.466;-1.016;2023-04-06T03:08:40;99722.50;;;9.92;77.82
65718;BME280;52445;52.466;-1.016;2023-04-06T03:11:06;99721.63;;;9.93;77.79
65718;BME280;52445;52.466;-1.016;2023-04-06T03:13:33;99719.03;;;9.95;77.65
65718;BME280;52445;52.466;-1.016;2023-04-06T03:15:59;99718.22;;;9.94;77.74
65718;BME280;52445;52.466;-1.016;2023-04-06T03:18:26;99713.03;;;9.94;77.99
65718;BME280;52445;52.466;-1.016;2023-04-06T03:20:53;99709.56;;;9.95;77.25
65718;BME280;52445;52.466;-1.016;2023-04-06T03:23:21;99708.69;;;9.96;78.03
65718;BME280;52445;52.466;-1.016;2023-04-06T03:25:47;99710.41;;;9.97;77.66
65718;BME280;52445;52.466;-1.016;2023-04-06T03:28:14;99703.53;;;9.96;78.15
65718;BME280;52445;52.466;-1.016;2023-04-06T03:30:42;99709.56;;;9.98;77.57
65718;BME280;52445;52.466;-1.016;2023-04-06T03:33:09;99699.22;;;9.98;77.45
65718;BME280;52445;52.466;-1.016;2023-04-06T03:35:35;99700.03;;;9.99;77.41
65718;BME280;52445;52.466;-1.016;2023-04-06T03:38:04;99697.47;;;10.00;77.57
65718;BME280;52445;52.466;-1.016;2023-04-06T03:40:31;99697.47;;;10.00;77.63
65718;BME280;52445;52.466;-1.016;2023-04-06T03:42:57;99704.38;;;10.01;78.45
65718;BME280;52445;52.466;-1.016;2023-04-06T03:45:24;99703.50;;;10.02;77.61
65718;BME280;52445;52.466;-1.016;2023-04-06T03:47:51;99699.19;;;10.01;78.47
65718;BME280;52445;52.466;-1.016;2023-04-06T03:50:18;99691.44;;;9.98;78.95
65718;BME280;52445;52.466;-1.016;2023-04-06T03:52:44;99679.34;;;9.97;79.17
65718;BME280;52445;52.466;-1.016;2023-04-06T03:55:11;99691.44;;;10.00;78.22
65718;BME280;52445;52.466;-1.016;2023-04-06T03:57:37;99680.22;;;9.99;79.00
65718;BME280;52445;52.466;-1.016;2023-04-06T04:00:05;99679.34;;;9.99;78.87
65718;BME280;52445;52.466;-1.016;2023-04-06T04:02:32;99674.22;;;9.96;79.23
65718;BME280;52445;52.466;-1.016;2023-04-06T04:04:58;99675.91;;;9.98;79.02
65718;BME280;52445;52.466;-1.016;2023-04-06T04:07:25;99671.59;;;10.00;78.76
65718;BME280;52445;52.466;-1.016;2023-04-06T04:09:51;99666.41;;;10.02;78.51
65718;BME280;52445;52.466;-1.016;2023-04-06T04:12:18;99661.22;;;10.03;78.73
65718;BME280;52445;52.466;-1.016;2023-04-06T04:14:45;99657.75;;;10.05;78.69
65718;BME280;52445;52.466;-1.016;2023-04-06T04:17:11;99668.97;;;10.07;79.04
65718;BME280;52445;52.466;-1.016;2023-04-06T04:19:38;99657.72;;;10.08;78.96
65718;BME280;52445;52.466;-1.016;2023-04-06T04:22:04;99650.84;;;10.10;78.20
65718;BME280;52445;52.466;-1.016;2023-04-06T04:24:32;99648.19;;;10.13;78.12
65718;BME280;52445;52.466;-1.016;2023-04-06T04:26:59;99643.88;;;10.15;78.66
65718;BME280;52445;52.466;-1.016;2023-04-06T04:29:27;99645.59;;;10.16;78.69
65718;BME280;52445;52.466;-1.016;2023-04-06T04:31:53;99652.50;;;10.17;78.24
65718;BME280;52445;52.466;-1.016;2023-04-06T04:34:20;99651.66;;;10.16;78.12
65718;BME280;52445;52.466;-1.016;2023-04-06T04:36:47;99656.81;;;10.16;78.11
65718;BME280;52445;52.466;-1.016;2023-04-06T04:39:13;99655.94;;;10.19;78.54
65718;BME280;52445;52.466;-1.016;2023-04-06T04:41:40;99660.22;;;10.20;78.54
65718;BME280;52445;52.466;-1.016;2023-04-06T04:44:06;99662.81;;;10.20;78.14
65718;BME280;52445;52.466;-1.016;2023-04-06T04:46:33;99657.63;;;10.20;78.30
65718;BME280;52445;52.466;-1.016;2023-04-06T04:49:00;99646.44;;;10.21;78.82
65718;BME280;52445;52.466;-1.016;2023-04-06T04:51:26;99659.38;;;10.21;78.62
65718;BME280;52445;52.466;-1.016;2023-04-06T04:53:53;99661.97;;;10.23;78.51
65718;BME280;52445;52.466;-1.016;2023-04-06T04:56:19;99655.91;;;10.22;78.24
65718;BME280;52445;52.466;-1.016;2023-04-06T04:58:46;99651.59;;;10.23;78.07
65718;BME280;52445;52.466;-1.016;2023-04-06T05:01:13;99653.31;;;10.24;78.16
65718;BME280;52445;52.466;-1.016;2023-04-06T05:03:39;99647.28;;;10.23;78.70
65718;BME280;52445;52.466;-1.016;2023-04-06T05:06:06;99650.75;;;10.22;78.78
65718;BME280;52445;52.466;-1.016;2023-04-06T05:08:33;99642.09;;;10.23;78.07
65718;BME280;52445;52.466;-1.016;2023-04-06T05:11:00;99647.28;;;10.23;78.73
65718;BME280;52445;52.466;-1.016;2023-04-06T05:13:26;99652.44;;;10.23;78.40
65718;BME280;52445;52.466;-1.016;2023-04-06T05:15:53;99648.97;;;10.24;78.49
65718;BME280;52445;52.466;-1.016;2023-04-06T05:18:19;99643.81;;;10.24;78.24
65718;BME280;52445;52.466;-1.016;2023-04-06T05:20:47;99643.84;;;10.21;79.21
65718;BME280;52445;52.466;-1.016;2023-04-06T05:23:13;99647.28;;;10.20;78.68
65718;BME280;52445;52.466;-1.016;2023-04-06T05:25:40;99643.84;;;10.21;78.42
65718;BME280;52445;52.466;-1.016;2023-04-06T05:28:07;99644.69;;;10.20;78.79
65718;BME280;52445;52.466;-1.016;2023-04-06T05:30:33;99639.53;;;10.20;78.46
65718;BME280;52445;52.466;-1.016;2023-04-06T05:33:02;99649.03;;;10.21;78.21
65718;BME280;52445;52.466;-1.016;2023-04-06T05:35:28;99649.88;;;10.20;78.75
65718;BME280;52445;52.466;-1.016;2023-04-06T05:37:55;99661.09;;;10.19;78.52
65718;BME280;52445;52.466;-1.016;2023-04-06T05:40:22;99659.41;;;10.18;78.63
65718;BME280;52445;52.466;-1.016;2023-04-06T05:42:48;99668.88;;;10.19;78.82
65718;BME280;52445;52.466;-1.016;2023-04-06T05:45:15;99666.28;;;10.19;78.66
65718;BME280;52445;52.466;-1.016;2023-04-06T05:47:44;99661.97;;;10.18;78.69
65718;BME280;52445;52.466;-1.016;2023-04-06T05:50:14;99662.88;;;10.17;79.06
65718;BME280;52445;52.466;-1.016;2023-04-06T05:52:40;99655.94;;;10.16;79.10
65718;BME280;52445;52.466;-1.016;2023-04-06T05:55:10;99655.94;;;10.16;79.39
65718;BME280;52445;52.466;-1.016;2023-04-06T05:57:37;99654.25;;;10.15;78.89
65718;BME280;52445;52.466;-1.016;2023-04-06T06:00:05;99647.34;;;10.17;79.26
65718;BME280;52445;52.466;-1.016;2023-04-06T06:02:35;99652.47;;;10.20;78.82
65718;BME280;52445;52.466;-1.016;2023-04-06T06:05:02;99655.91;;;10.22;78.99
65718;BME280;52445;52.466;-1.016;2023-04-06T06:07:28;99652.44;;;10.23;78.88
65718;BME280;52445;52.466;-1.016;2023-04-06T06:09:57;99645.53;;;10.25;78.75
65718;BME280;52445;52.466;-1.016;2023-04-06T06:12:24;99645.53;;;10.25;78.63
65718;BME280;52445;52.466;-1.016;2023-04-06T06:14:51;99654.13;;;10.27;78.39
65718;BME280;52445;52.466;-1.016;2023-04-06T06:17:17;99650.66;;;10.32;78.95
65718;BME280;52445;52.466;-1.016;2023-04-06T06:19:44;99644.63;;;10.31;78.93
65718;BME280;52445;52.466;-1.016;2023-04-06T06:22:11;99652.41;;;10.33;78.79
65718;BME280;52445;52.466;-1.016;2023-04-06T06:24:37;99652.34;;;10.34;78.92
65718;BME280;52445;52.466;-1.016;2023-04-06T06:27:04;99656.69;;;10.35;78.68
65718;BME280;52445;52.466;-1.016;2023-04-06T06:29:31;99658.38;;;10.38;78.60
65718;BME280;52445;52.466;-1.016;2023-04-06T06:31:57;99648.91;;;10.37;78.48
65718;BME280;52445;52.466;-1.016;2023-04-06T06:34:24;99653.19;;;10.39;77.95
65718;BME280;52445;52.466;-1.016;2023-04-06T06:36:51;99653.19;;;10.39;78.53
65718;BME280;52445;52.466;-1.016;2023-04-06T06:39:21;99649.72;;;10.40;78.75
65718;BME280;52445;52.466;-1.016;2023-04-06T06:41:48;99648.00;;;10.41;78.18
65718;BME280;52445;52.466;-1.016;2023-04-06T06:44:14;99647.13;;;10.42;78.78
65718;BME280;52445;52.466;-1.016;2023-04-06T06:46:43;99639.38;;;10.40;78.88
65718;BME280;52445;52.466;-1.016;2023-04-06T06:49:09;99645.41;;;10.44;78.40
65718;BME280;52445;52.466;-1.016;2023-04-06T06:51:38;99650.56;;;10.44;78.87
65718;BME280;52445;52.466;-1.016;2023-04-06T06:54:05;99654.91;;;10.45;78.26
65718;BME280;52445;52.466;-1.016;2023-04-06T06:56:32;99658.34;;;10.43;78.87
65718;BME280;52445;52.466;-1.016;2023-04-06T06:58:59;99655.75;;;10.44;78.88
65718;BME280;52445;52.466;-1.016;2023-04-06T07:01:25;99657.50;;;10.45;79.04
65718;BME280;52445;52.466;-1.016;2023-04-06T07:03:52;99662.66;;;10.42;79.21
65718;BME280;52445;52.466;-1.016;2023-04-06T07:06:19;99667.84;;;10.42;78.48
65718;BME280;52445;52.466;-1.016;2023-04-06T07:08:46;99664.38;;;10.40;79.43
65718;BME280;52445;52.466;-1.016;2023-04-06T07:11:13;99668.72;;;10.41;78.68
65718;BME280;52445;52.466;-1.016;2023-04-06T07:13:40;99670.44;;;10.39;78.86
65718;BME280;52445;52.466;-1.016;2023-04-06T07:16:06;99663.56;;;10.35;79.26
65718;BME280;52445;52.466;-1.016;2023-04-06T07:18:33;99666.13;;;10.39;79.35
65718;BME280;52445;52.466;-1.016;2023-04-06T07:21:01;99667.03;;;10.34;79.69
65718;BME280;52445;52.466;-1.016;2023-04-06T07:23:28;99664.38;;;10.41;78.60
65718;BME280;52445;52.466;-1.016;2023-04-06T07:25:55;99663.53;;;10.41;79.85
65718;BME280;52445;52.466;-1.016;2023-04-06T07:28:21;99666.13;;;10.41;79.91
65718;BME280;52445;52.466;-1.016;2023-04-06T07:30:48;99671.28;;;10.47;79.65
65718;BME280;52445;52.466;-1.016;2023-04-06T07:33:15;99673.03;;;10.45;80.11
65718;BME280;52445;52.466;-1.016;2023-04-06T07:35:41;99673.03;;;10.45;79.64
65718;BME280;52445;52.466;-1.016;2023-04-06T07:38:08;99681.59;;;10.50;79.13
65718;BME280;52445;52.466;-1.016;2023-04-06T07:40:35;99678.13;;;10.54;79.38
65718;BME280;52445;52.466;-1.016;2023-04-06T07:43:01;99682.47;;;10.54;79.21
65718;BME280;52445;52.466;-1.016;2023-04-06T07:45:28;99683.28;;;10.54;78.79
65718;BME280;52445;52.466;-1.016;2023-04-06T07:47:55;99692.78;;;10.56;79.12
65718;BME280;52445;52.466;-1.016;2023-04-06T07:50:22;99688.50;;;10.51;79.78
65718;BME280;52445;52.466;-1.016;2023-04-06T07:52:49;99698.84;;;10.54;79.19
65718;BME280;52445;52.466;-1.016;2023-04-06T07:55:15;99693.63;;;10.58;79.05
65718;BME280;52445;52.466;-1.016;2023-04-06T07:57:42;99691.09;;;10.51;79.33
65718;BME280;52445;52.466;-1.016;2023-04-06T08:00:09;99699.72;;;10.53;79.88
65718;BME280;52445;52.466;-1.016;2023-04-06T08:02:36;99697.13;;;10.55;79.41
65718;BME280;52445;52.466;-1.016;2023-04-06T08:05:03;99698.81;;;10.58;79.26
65718;BME280;52445;52.466;-1.016;2023-04-06T08:07:30;99700.50;;;10.62;79.61
65718;BME280;52445;52.466;-1.016;2023-04-06T08:09:56;99691.00;;;10.65;79.61
65718;BME280;52445;52.466;-1.016;2023-04-06T08:12:23;99690.91;;;10.72;80.63
65718;BME280;52445;52.466;-1.016;2023-04-06T08:14:49;99700.47;;;10.68;80.75
65718;BME280;52445;52.466;-1.016;2023-04-06T08:17:16;99694.38;;;10.74;81.01
65718;BME280;52445;52.466;-1.016;2023-04-06T08:19:43;99707.25;;;10.78;80.13
65718;BME280;52445;52.466;-1.016;2023-04-06T08:22:11;99704.63;;;10.85;79.59
65718;BME280;52445;52.466;-1.016;2023-04-06T08:24:38;99700.31;;;10.84;79.90
65718;BME280;52445;52.466;-1.016;2023-04-06T08:27:04;99705.50;;;10.84;80.52
65718;BME280;52445;52.466;-1.016;2023-04-06T08:29:31;99707.13;;;10.94;79.36
65718;BME280;52445;52.466;-1.016;2023-04-06T08:31:57;99707.88;;;11.04;79.00
65718;BME280;52445;52.466;-1.016;2023-04-06T08:34:24;99710.53;;;10.99;79.57
65718;BME280;52445;52.466;-1.016;2023-04-06T08:36:51;99715.66;;;11.02;79.35
65718;BME280;52445;52.466;-1.016;2023-04-06T08:39:18;99720.03;;;11.00;79.26
65718;BME280;52445;52.466;-1.016;2023-04-06T08:41:52;99720.91;;;11.01;79.21
65718;BME280;52445;52.466;-1.016;2023-04-06T08:44:19;99725.22;;;11.00;78.23
65718;BME280;52445;52.466;-1.016;2023-04-06T08:46:46;99728.56;;;11.10;79.30
65718;BME280;52445;52.466;-1.016;2023-04-06T08:49:14;99727.66;;;11.16;79.14
65718;BME280;52445;52.466;-1.016;2023-04-06T08:51:42;99729.31;;;11.23;77.95
65718;BME280;52445;52.466;-1.016;2023-04-06T08:54:09;99733.59;;;11.26;77.47
65718;BME280;52445;52.466;-1.016;2023-04-06T08:56:38;99733.53;;;11.34;77.61
65718;BME280;52445;52.466;-1.016;2023-04-06T08:59:06;99730.84;;;11.38;77.59
65718;BME280;52445;52.466;-1.016;2023-04-06T09:01:33;99732.34;;;11.60;78.50
65718;BME280;52445;52.466;-1.016;2023-04-06T09:04:07;99720.97;;;11.72;77.11
65718;BME280;52445;52.466;-1.016;2023-04-06T09:06:37;99718.19;;;11.86;76.81
65718;BME280;52445;52.466;-1.016;2023-04-06T09:09:03;99717.16;;;11.98;76.95
65718;BME280;52445;52.466;-1.016;2023-04-06T09:11:42;99716.28;;;11.99;75.41
65718;BME280;52445;52.466;-1.016;2023-04-06T09:14:08;99716.31;;;11.97;75.98
65718;BME280;52445;52.466;-1.016;2023-04-06T09:16:40;99716.19;;;12.03;75.34
65718;BME280;52445;52.466;-1.016;2023-04-06T09:19:09;99728.31;;;12.07;75.87
65718;BME280;52445;52.466;-1.016;2023-04-06T09:21:37;99732.59;;;12.12;75.56
65718;BME280;52445;52.466;-1.016;2023-04-06T09:24:06;99731.59;;;12.19;74.40
65718;BME280;52445;52.466;-1.016;2023-04-06T09:26:45;99738.41;;;12.26;74.33
65718;BME280;52445;52.466;-1.016;2023-04-06T09:29:23;99740.81;;;12.40;75.14
65718;BME280;52445;52.466;-1.016;2023-04-06T09:32:03;99741.47;;;12.53;73.98
65718;BME280;52445;52.466;-1.016;2023-04-06T09:34:30;99737.06;;;12.60;72.88
65718;BME280;52445;52.466;-1.016;2023-04-06T09:36:57;99752.66;;;12.60;72.86
65718;BME280;52445;52.466;-1.016;2023-04-06T09:39:24;99758.84;;;12.51;72.72
65718;BME280;52445;52.466;-1.016;2023-04-06T09:41:53;99753.78;;;12.42;71.34
65718;BME280;52445;52.466;-1.016;2023-04-06T09:44:21;99746.22;;;12.25;71.14
65718;BME280;52445;52.466;-1.016;2023-04-06T09:46:47;99760.13;;;12.20;72.10
65718;BME280;52445;52.466;-1.016;2023-04-06T09:49:27;99754.19;;;12.14;71.45
65718;BME280;52445;52.466;-1.016;2023-04-06T09:51:59;99751.69;;;12.06;70.68
65718;BME280;52445;52.466;-1.016;2023-04-06T09:54:28;99757.81;;;12.00;70.92
65718;BME280;52445;52.466;-1.016;2023-04-06T10:00:08;99764.50;;;12.20;70.71
65718;BME280;52445;52.466;-1.016;2023-04-06T10:02:44;99764.34;;;12.29;70.21
65718;BME280;52445;52.466;-1.016;2023-04-06T10:05:19;99763.34;;;12.38;70.09
65718;BME280;52445;52.466;-1.016;2023-04-06T10:07:50;99774.38;;;12.54;69.70
65718;BME280;52445;52.466;-1.016;2023-04-06T10:10:28;99776.88;;;12.59;69.70
65718;BME280;52445;52.466;-1.016;2023-04-06T10:12:55;99770.75;;;12.63;68.33
65718;BME280;52445;52.466;-1.016;2023-04-06T10:15:23;99772.50;;;12.64;68.46
65718;BME280;52445;52.466;-1.016;2023-04-06T10:17:50;99773.25;;;12.71;68.10
65718;BME280;52445;52.466;-1.016;2023-04-06T10:20:23;99779.88;;;12.91;67.22
65718;BME280;52445;52.466;-1.016;2023-04-06T10:22:57;99774.53;;;12.98;67.21
65718;BME280;52445;52.466;-1.016;2023-04-06T10:25:27;99778.94;;;12.95;65.49
65718;BME280;52445;52.466;-1.016;2023-04-06T10:28:05;99784.34;;;12.82;66.33
65718;BME280;52445;52.466;-1.016;2023-04-06T10:30:34;99792.16;;;12.81;67.05
65718;BME280;52445;52.466;-1.016;2023-04-06T10:33:12;99792.81;;;12.94;67.64
65718;BME280;52445;52.466;-1.016;2023-04-06T10:35:40;99790.53;;;13.24;68.74
65718;BME280;52445;52.466;-1.016;2023-04-06T10:38:07;99797.09;;;13.45;67.18
65718;BME280;52445;52.466;-1.016;2023-04-06T10:40:36;99790.75;;;13.64;66.32
65718;BME280;52445;52.466;-1.016;2023-04-06T10:43:09;99792.16;;;13.79;66.13
65718;BME280;52445;52.466;-1.016;2023-04-06T10:45:36;99791.56;;;14.08;65.72
65718;BME280;52445;52.466;-1.016;2023-04-06T10:48:15;99791.91;;;14.32;63.93
65718;BME280;52445;52.466;-1.016;2023-04-06T10:50:47;99799.91;;;14.62;64.28
65718;BME280;52445;52.466;-1.016;2023-04-06T10:53:23;99805.63;;;14.80;63.02
65718;BME280;52445;52.466;-1.016;2023-04-06T10:55:51;99794.00;;;14.94;62.06
65718;BME280;52445;52.466;-1.016;2023-04-06T10:58:24;99802.41;;;15.05;62.36
65718;BME280;52445;52.466;-1.016;2023-04-06T11:00:51;99798.59;;;15.19;61.48
65718;BME280;52445;52.466;-1.016;2023-04-06T11:03:18;99798.47;;;15.23;60.59
65718;BME280;52445;52.466;-1.016;2023-04-06T11:05:46;99791.09;;;15.39;60.27
65718;BME280;52445;52.466;-1.016;2023-04-06T11:08:31;99792.56;;;15.50;59.83
65718;BME280;52445;52.466;-1.016;2023-04-06T11:11:09;99798.44;;;15.58;58.93
65718;BME280;52445;52.466;-1.016;2023-04-06T11:13:40;99799.31;;;15.57;58.81
65718;BME280;52445;52.466;-1.016;2023-04-06T11:16:15;99804.78;;;15.48;58.81
65718;BME280;52445;52.466;-1.016;2023-04-06T11:19:03;99811.13;;;15.37;57.68
65718;BME280;52445;52.466;-1.016;2023-04-06T11:21:48;99799.00;;;15.36;58.01
65718;BME280;52445;52.466;-1.016;2023-04-06T11:26:57;99806.56;;;15.12;57.73
65718;BME280;52445;52.466;-1.016;2023-04-06T11:29:27;99805.09;;;15.02;58.31
65718;BME280;52445;52.466;-1.016;2023-04-06T11:31:58;99802.16;;;14.80;58.17
65718;BME280;52445;52.466;-1.016;2023-04-06T11:34:27;99812.06;;;14.63;57.25
65718;BME280;52445;52.466;-1.016;2023-04-06T11:36:56;99808.03;;;14.50;58.32
65718;BME280;52445;52.466;-1.016;2023-04-06T11:39:24;99816.13;;;14.37;58.24
65718;BME280;52445;52.466;-1.016;2023-04-06T11:41:53;99807.53;;;14.32;59.18
65718;BME280;52445;52.466;-1.016;2023-04-06T11:44:38;99822.25;;;14.35;58.76
65718;BME280;52445;52.466;-1.016;2023-04-06T11:47:07;99817.72;;;14.45;57.70
65718;BME280;52445;52.466;-1.016;2023-04-06T11:49:38;99816.66;;;14.52;57.39
65718;BME280;52445;52.466;-1.016;2023-04-06T11:52:24;99819.19;;;14.55;56.87
65718;BME280;52445;52.466;-1.016;2023-04-06T11:54:52;99825.03;;;14.67;56.83
65718;BME280;52445;52.466;-1.016;2023-04-06T11:57:20;99832.56;;;14.79;58.23
65718;BME280;52445;52.466;-1.016;2023-04-06T11:59:48;99816.72;;;14.88;57.60
65718;BME280;52445;52.466;-1.016;2023-04-06T12:02:14;99816.69;;;14.90;56.75
65718;BME280;52445;52.466;-1.016;2023-04-06T12:04:41;99819.69;;;15.09;56.85
65718;BME280;52445;52.466;-1.016;2023-04-06T12:07:08;99818.53;;;15.21;55.76
65718;BME280;52445;52.466;-1.016;2023-04-06T12:09:34;99822.72;;;15.27;55.43
65718;BME280;52445;52.466;-1.016;2023-04-06T12:12:03;99825.13;;;15.35;55.25
65718;BME280;52445;52.466;-1.016;2023-04-06T12:14:29;99834.47;;;15.44;55.36
65718;BME280;52445;52.466;-1.016;2023-04-06T12:16:57;99834.16;;;15.56;55.55
65718;BME280;52445;52.466;-1.016;2023-04-06T12:19:24;99822.34;;;15.42;54.22
65718;BME280;52445;52.466;-1.016;2023-04-06T12:21:53;99826.06;;;15.32;54.77
65718;BME280;52445;52.466;-1.016;2023-04-06T12:24:20;99834.16;;;15.23;54.20
65718;BME280;52445;52.466;-1.016;2023-04-06T12:26:46;99836.91;;;15.16;54.51
65718;BME280;52445;52.466;-1.016;2023-04-06T12:29:13;99846.84;;;15.00;54.19
65718;BME280;52445;52.466;-1.016;2023-04-06T12:31:40;99847.16;;;14.88;54.86
65718;BME280;52445;52.466;-1.016;2023-04-06T12:34:09;99846.44;;;14.81;54.86
65718;BME280;52445;52.466;-1.016;2023-04-06T12:36:37;99849.66;;;14.93;55.13
65718;BME280;52445;52.466;-1.016;2023-04-06T12:39:03;99846.78;;;15.03;55.51
65718;BME280;52445;52.466;-1.016;2023-04-06T12:41:30;99841.09;;;15.22;55.46
65718;BME280;52445;52.466;-1.016;2023-04-06T12:43:57;99851.13;;;15.39;55.39
65718;BME280;52445;52.466;-1.016;2023-04-06T12:46:26;99845.63;;;15.49;54.72
65718;BME280;52445;52.466;-1.016;2023-04-06T12:48:53;99844.38;;;15.31;53.45
65718;BME280;52445;52.466;-1.016;2023-04-06T12:51:20;99844.13;;;15.05;52.56
65718;BME280;52445;52.466;-1.016;2023-04-06T12:53:47;99848.69;;;14.97;53.68
65718;BME280;52445;52.466;-1.016;2023-04-06T12:56:16;99849.97;;;14.80;53.87
65718;BME280;52445;52.466;-1.016;2023-04-06T12:58:44;99855.16;;;14.80;53.40
65718;BME280;52445;52.466;-1.016;2023-04-06T13:01:12;99867.38;;;14.78;54.10